createdAt,value
2018-12-04T00:00:50.340Z,1.57
2018-12-04T00:03:53.664Z,4.87
2018-12-04T00:06:56.892Z,2.77
2018-12-04T00:10:00.141Z,2.70
2018-12-04T00:13:03.368Z,4.57
2018-12-04T00:16:06.609Z,2.87
2018-12-04T00:19:09.860Z,4.07
2018-12-04T00:22:13.138Z,2.37
2018-12-04T00:25:16.465Z,2.10
2018-12-04T00:28:19.701Z,3.80
2018-12-04T00:31:22.942Z,2.17
2018-12-04T00:34:26.247Z,2.07
2018-12-04T00:37:29.497Z,3.47
2018-12-04T00:40:32.725Z,5.00
2018-12-04T00:43:35.986Z,2.27
2018-12-04T00:46:39.354Z,2.33
2018-12-04T00:49:42.765Z,3.17
2018-12-04T00:52:45.977Z,1.30
2018-12-04T00:55:49.315Z,2.40
2018-12-04T00:58:52.658Z,2.23
2018-12-04T01:01:55.884Z,1.03
2018-12-04T01:04:59.146Z,4.93
2018-12-04T01:08:02.416Z,4.47
2018-12-04T01:11:05.725Z,3.43
2018-12-04T01:14:08.956Z,6.30
2018-12-04T01:17:12.191Z,6.23
2018-12-04T01:20:15.458Z,4.90
2018-12-04T01:23:18.770Z,3.50
2018-12-04T01:26:21.993Z,2.67
2018-12-04T01:29:25.262Z,3.20
2018-12-04T01:32:28.477Z,3.97
2018-12-04T01:35:31.752Z,2.07
2018-12-04T01:38:34.973Z,3.90
2018-12-04T01:41:38.248Z,4.80
2018-12-04T01:44:41.467Z,4.37
2018-12-04T01:47:44.713Z,3.77
2018-12-04T01:50:47.943Z,3.77
2018-12-04T01:53:51.321Z,5.20
2018-12-04T01:56:54.657Z,6.03
2018-12-04T01:59:57.929Z,4.27
2018-12-04T02:03:01.168Z,5.33
2018-12-04T02:06:04.474Z,4.43
2018-12-04T02:09:07.871Z,3.57
2018-12-04T02:12:11.216Z,7.33
2018-12-04T02:15:14.495Z,4.63
2018-12-04T02:18:17.812Z,3.53
2018-12-04T02:21:21.065Z,3.83
2018-12-04T02:24:24.291Z,3.00
2018-12-04T02:27:27.530Z,3.87
2018-12-04T02:30:30.797Z,3.10
2018-12-04T02:33:34.034Z,2.97
2018-12-04T02:36:37.271Z,2.67
2018-12-04T02:39:40.604Z,2.53
2018-12-04T02:42:43.923Z,2.93
2018-12-04T02:45:47.192Z,3.30
2018-12-04T02:48:50.428Z,3.93
2018-12-04T02:51:53.662Z,3.83
2018-12-04T02:54:56.907Z,3.70
2018-12-04T02:58:00.231Z,4.57
2018-12-04T03:01:03.467Z,3.60
2018-12-04T03:04:06.731Z,5.27
2018-12-04T03:07:10.089Z,3.80
2018-12-04T03:10:13.409Z,2.63
2018-12-04T03:13:16.686Z,3.20
2018-12-04T03:16:19.921Z,5.40
2018-12-04T03:19:23.237Z,3.97
2018-12-04T03:22:26.508Z,6.30
2018-12-04T03:25:29.750Z,7.87
2018-12-04T03:28:32.979Z,3.67
2018-12-04T03:31:36.211Z,6.93
2018-12-04T03:34:39.571Z,5.60
2018-12-04T03:37:42.804Z,4.00
2018-12-04T03:40:46.097Z,4.20
2018-12-04T03:43:49.340Z,3.83
2018-12-04T03:46:52.589Z,4.40
2018-12-04T03:49:55.896Z,5.37
2018-12-04T03:52:59.201Z,2.13
2018-12-04T03:56:02.500Z,3.93
2018-12-04T03:59:05.801Z,3.10
2018-12-04T04:02:09.152Z,4.57
2018-12-04T04:05:12.385Z,3.63
2018-12-04T04:08:15.621Z,4.40
2018-12-04T04:11:18.944Z,4.17
2018-12-04T04:14:22.181Z,5.13
2018-12-04T04:17:25.421Z,4.97
2018-12-04T04:20:28.774Z,4.07
2018-12-04T04:23:32.063Z,4.30
2018-12-04T04:26:35.325Z,5.33
2018-12-04T04:29:38.553Z,4.40
2018-12-04T04:32:41.794Z,3.43
2018-12-04T04:35:45.020Z,6.23
2018-12-04T04:38:48.253Z,2.73
2018-12-04T04:41:51.500Z,5.67
2018-12-04T04:44:54.765Z,5.27
2018-12-04T04:47:58.100Z,5.10
2018-12-04T04:51:01.369Z,5.90
2018-12-04T04:54:04.661Z,5.13
2018-12-04T04:57:07.901Z,2.60
2018-12-04T05:00:11.166Z,4.40
2018-12-04T05:03:14.485Z,2.40
2018-12-04T05:06:17.722Z,2.37
2018-12-04T05:09:21.054Z,6.07
2018-12-04T05:12:24.293Z,2.90
2018-12-04T05:15:27.572Z,5.00
2018-12-04T05:18:30.894Z,1.60
2018-12-04T05:21:34.122Z,5.37
2018-12-04T05:24:37.366Z,1.90
2018-12-04T05:27:40.607Z,3.23
2018-12-04T05:30:43.841Z,5.60
2018-12-04T05:33:47.084Z,3.13
2018-12-04T05:36:50.402Z,8.00
2018-12-04T05:39:53.726Z,5.57
2018-12-04T05:42:56.969Z,3.00
2018-12-04T05:46:00.196Z,4.90
2018-12-04T05:49:03.430Z,2.97
2018-12-04T05:52:06.674Z,2.40
2018-12-04T05:55:09.902Z,3.20
2018-12-04T05:58:13.173Z,1.70
2018-12-04T06:01:16.475Z,2.03
2018-12-04T06:04:19.776Z,2.63
2018-12-04T06:07:23.006Z,4.17
2018-12-04T06:10:26.264Z,6.30
2018-12-04T06:13:29.565Z,2.67
2018-12-04T06:16:32.794Z,3.40
2018-12-04T06:19:36.033Z,4.40
2018-12-04T06:22:39.272Z,2.77
2018-12-04T06:25:42.586Z,1.97
2018-12-04T06:28:45.820Z,3.57
2018-12-04T06:31:49.117Z,2.47
2018-12-04T06:34:52.426Z,1.77
2018-12-04T06:37:55.735Z,3.50
2018-12-04T06:40:59.004Z,1.23
2018-12-04T06:44:02.230Z,2.13
2018-12-04T06:47:05.505Z,3.03
2018-12-04T06:50:10.704Z,4.00
2018-12-04T06:53:14.028Z,1.83
2018-12-04T06:56:17.337Z,2.33
2018-12-04T06:59:20.569Z,1.53
2018-12-04T07:02:23.836Z,1.30
2018-12-04T07:05:27.088Z,1.80
2018-12-04T07:08:30.399Z,2.93
2018-12-04T07:11:33.624Z,2.50
2018-12-04T07:14:36.899Z,1.33
2018-12-04T07:17:40.174Z,1.57
2018-12-04T07:20:43.404Z,3.73
2018-12-04T07:23:46.643Z,2.27
2018-12-04T07:30:03.547Z,4.30
2018-12-04T07:33:06.925Z,4.97
2018-12-04T07:36:10.144Z,2.87
2018-12-04T07:39:13.423Z,2.47
2018-12-04T07:42:16.761Z,2.67
2018-12-04T07:45:20.105Z,2.50
2018-12-04T07:48:23.349Z,4.50
2018-12-04T07:51:26.585Z,2.73
2018-12-04T07:54:29.892Z,3.40
2018-12-04T07:57:33.132Z,5.17
2018-12-04T08:00:36.508Z,4.40
2018-12-04T08:03:39.722Z,5.13
2018-12-04T08:06:43.081Z,2.37
2018-12-04T08:09:46.372Z,2.80
2018-12-04T08:12:49.621Z,2.83
2018-12-04T08:15:52.930Z,2.33
2018-12-04T08:18:56.289Z,3.00
2018-12-04T08:21:59.599Z,3.80
2018-12-04T08:25:02.960Z,2.03
2018-12-04T08:28:06.284Z,2.20
2018-12-04T08:31:09.525Z,2.70
2018-12-04T08:34:12.902Z,2.13
2018-12-04T08:37:16.186Z,2.40
2018-12-04T08:40:19.549Z,2.00
2018-12-04T08:43:22.780Z,2.53
2018-12-04T08:46:26.120Z,4.03
2018-12-04T08:49:29.387Z,3.97
2018-12-04T08:52:32.693Z,3.40
2018-12-04T08:55:35.935Z,4.67
2018-12-04T08:58:39.244Z,4.43
2018-12-04T09:01:42.537Z,3.70
2018-12-04T09:04:45.823Z,2.40
2018-12-04T09:07:49.132Z,3.23
2018-12-04T09:10:52.443Z,2.63
2018-12-04T09:13:55.656Z,3.23
2018-12-04T09:16:59.039Z,1.70
2018-12-04T09:20:02.334Z,2.70
2018-12-04T09:23:05.588Z,1.70
2018-12-04T09:26:08.884Z,1.77
2018-12-04T09:29:12.275Z,1.77
2018-12-04T09:32:15.638Z,4.37
2018-12-04T09:35:18.905Z,4.97
2018-12-04T09:38:22.128Z,3.23
2018-12-04T09:41:25.414Z,5.17
2018-12-04T09:44:28.640Z,2.67
2018-12-04T09:47:31.902Z,2.93
2018-12-04T09:50:35.148Z,3.77
2018-12-04T09:53:38.479Z,2.33
2018-12-04T09:56:41.689Z,5.13
2018-12-04T09:59:44.913Z,1.60
2018-12-04T10:02:48.144Z,2.70
2018-12-04T10:05:51.413Z,2.50
2018-12-04T10:08:54.649Z,2.33
2018-12-04T10:11:57.989Z,1.93
2018-12-04T10:15:01.222Z,3.63
2018-12-04T10:18:04.589Z,2.87
2018-12-04T10:21:07.866Z,4.67
2018-12-04T10:24:11.112Z,3.60
2018-12-04T10:27:14.340Z,4.87
2018-12-04T10:30:17.660Z,3.30
2018-12-04T10:33:20.882Z,2.87
2018-12-04T10:36:24.105Z,4.00
2018-12-04T10:39:27.338Z,6.17
2018-12-04T10:42:30.571Z,4.03
2018-12-04T10:45:33.936Z,2.50
2018-12-04T10:48:37.180Z,3.37
2018-12-04T10:51:40.530Z,3.53
2018-12-04T10:54:43.744Z,4.27
2018-12-04T10:57:47.005Z,3.23
2018-12-04T11:00:55.031Z,2.40
2018-12-04T11:03:58.427Z,2.83
2018-12-04T11:07:01.632Z,3.43
2018-12-04T11:10:05.431Z,5.23
2018-12-04T11:13:08.632Z,4.27
2018-12-04T11:16:11.927Z,3.73
2018-12-04T11:19:15.269Z,4.80
2018-12-04T11:22:18.517Z,5.17
2018-12-04T11:25:21.750Z,2.43
2018-12-04T11:28:25.057Z,5.57
2018-12-04T11:31:28.281Z,5.77
2018-12-04T11:34:31.587Z,4.60
2018-12-04T11:37:34.808Z,5.83
2018-12-04T11:40:38.040Z,5.43
2018-12-04T11:43:41.261Z,4.33
2018-12-04T11:46:44.518Z,2.27
2018-12-04T11:49:47.885Z,5.73
2018-12-04T11:52:51.125Z,3.97
2018-12-04T11:55:54.482Z,3.70
2018-12-04T11:58:57.919Z,3.93
2018-12-04T12:02:01.586Z,5.30
2018-12-04T12:05:05.224Z,3.97
2018-12-04T12:08:08.492Z,4.00
2018-12-04T12:11:11.721Z,3.03
2018-12-04T12:14:14.978Z,4.57
2018-12-04T12:17:18.180Z,6.30
2018-12-04T12:20:21.472Z,4.43
2018-12-04T12:23:24.673Z,5.57
2018-12-04T12:26:27.901Z,6.50
2018-12-04T12:29:31.113Z,4.00
2018-12-04T12:32:34.337Z,5.40
2018-12-04T12:35:37.572Z,5.23
2018-12-04T12:38:40.789Z,4.77
2018-12-04T12:41:44.042Z,7.20
2018-12-04T12:44:47.343Z,6.57
2018-12-04T12:47:50.564Z,5.93
2018-12-04T12:50:53.788Z,6.93
2018-12-04T12:53:57.024Z,5.10
2018-12-04T12:57:00.230Z,7.37
2018-12-04T13:00:04.933Z,4.20
2018-12-04T13:03:08.156Z,4.60
2018-12-04T13:06:11.471Z,5.93
2018-12-04T13:09:14.778Z,8.53
2018-12-04T13:12:18.113Z,6.27
2018-12-04T13:15:21.434Z,7.43
2018-12-04T13:18:24.855Z,4.93
2018-12-04T13:21:28.167Z,3.87
2018-12-04T13:24:31.462Z,4.93
2018-12-04T13:27:34.706Z,6.87
2018-12-04T13:30:38.020Z,9.90
2018-12-04T13:33:41.352Z,7.20
2018-12-04T13:36:44.583Z,5.77
2018-12-04T13:39:47.905Z,5.33
2018-12-04T13:42:51.201Z,4.93
2018-12-04T13:45:54.496Z,4.37
2018-12-04T13:48:57.794Z,5.47
2018-12-04T13:52:01.023Z,3.83
2018-12-04T13:55:04.793Z,4.67
2018-12-04T13:58:08.123Z,6.73
2018-12-04T14:01:11.526Z,5.57
2018-12-04T14:04:17.138Z,4.10
2018-12-04T14:07:20.064Z,5.47
2018-12-04T14:10:23.361Z,4.67
2018-12-04T14:13:26.590Z,3.63
2018-12-04T14:16:29.938Z,4.50
2018-12-04T14:19:34.166Z,3.30
2018-12-04T14:22:37.584Z,5.97
2018-12-04T14:25:40.974Z,5.40
2018-12-04T14:28:44.290Z,5.97
2018-12-04T14:31:47.568Z,4.03
2018-12-04T14:34:50.810Z,3.47
2018-12-04T14:37:54.161Z,3.60
2018-12-04T14:40:57.543Z,9.27
2018-12-04T14:44:00.828Z,5.00
2018-12-04T14:47:04.177Z,4.37
2018-12-04T14:50:08.518Z,10.50
2018-12-04T14:53:11.771Z,6.17
2018-12-04T14:56:15.109Z,9.07
2018-12-04T14:59:18.428Z,8.00
2018-12-04T15:02:21.809Z,8.57
2018-12-04T15:05:25.137Z,34.87
2018-12-04T15:08:28.441Z,49.60
2018-12-04T15:11:31.698Z,5.87
2018-12-04T15:14:34.992Z,6.37
2018-12-04T15:17:38.237Z,5.33
2018-12-04T15:20:41.550Z,6.07
2018-12-04T15:23:44.831Z,6.90
2018-12-04T15:26:48.053Z,4.77
2018-12-04T15:29:51.312Z,7.23
2018-12-04T15:32:54.643Z,5.87
2018-12-04T15:35:57.936Z,5.73
2018-12-04T15:39:01.277Z,6.53
2018-12-04T15:42:04.711Z,4.87
2018-12-04T15:45:08.205Z,8.17
2018-12-04T15:48:11.541Z,5.33
2018-12-04T15:51:14.915Z,5.63
2018-12-04T15:54:18.192Z,4.07
2018-12-04T15:57:21.622Z,6.03
2018-12-04T16:00:24.917Z,4.37
2018-12-04T16:03:28.148Z,4.83
2018-12-04T16:06:31.361Z,4.27
2018-12-04T16:09:34.638Z,4.53
2018-12-04T16:12:37.878Z,5.30
2018-12-04T16:15:41.301Z,8.63
2018-12-04T16:18:44.537Z,6.73
2018-12-04T16:21:47.788Z,7.27
2018-12-04T16:24:51.010Z,7.00
2018-12-04T16:27:54.534Z,5.07
2018-12-04T16:30:57.913Z,5.03
2018-12-04T16:34:01.142Z,6.40
2018-12-04T16:37:04.452Z,8.63
2018-12-04T16:40:07.848Z,5.27
2018-12-04T16:43:11.085Z,8.43
2018-12-04T16:46:14.314Z,5.57
2018-12-04T16:49:17.596Z,5.47
2018-12-04T16:52:20.847Z,9.93
2018-12-04T16:55:24.134Z,4.37
2018-12-04T16:58:27.367Z,6.23
2018-12-04T17:01:30.596Z,5.40
2018-12-04T17:04:33.942Z,7.43
2018-12-04T17:07:37.284Z,6.63
2018-12-04T17:10:40.504Z,6.73
2018-12-04T17:13:43.759Z,6.43
2018-12-04T17:16:47.026Z,6.87
2018-12-04T17:19:50.228Z,8.17
2018-12-04T17:22:53.485Z,8.40
2018-12-04T17:25:56.704Z,9.07
2018-12-04T17:28:59.925Z,8.60
2018-12-04T17:32:03.280Z,9.93
2018-12-04T17:35:06.518Z,8.83
2018-12-04T17:38:09.745Z,7.70
2018-12-04T17:41:12.995Z,9.43
2018-12-04T17:44:16.199Z,7.53
2018-12-04T17:47:19.486Z,10.20
2018-12-04T17:50:22.721Z,12.00
2018-12-04T17:53:26.117Z,10.53
2018-12-04T17:56:29.346Z,11.03
2018-12-04T17:59:32.649Z,8.30
2018-12-04T18:02:35.884Z,11.63
2018-12-04T18:05:39.162Z,10.40
2018-12-04T18:08:42.463Z,9.33
2018-12-04T18:11:45.666Z,7.93
2018-12-04T18:14:48.921Z,7.37
2018-12-04T18:17:52.545Z,9.10
2018-12-04T18:20:56.325Z,7.22
2018-12-04T18:24:00.052Z,7.37
2018-12-04T18:27:03.288Z,10.40
2018-12-04T18:30:07.760Z,9.90
2018-12-04T18:33:11.002Z,9.17
2018-12-04T18:36:14.245Z,7.83
2018-12-04T18:39:17.473Z,10.20
2018-12-04T18:42:20.841Z,9.53
2018-12-04T18:45:24.161Z,11.63
2018-12-04T18:48:27.773Z,12.60
2018-12-04T18:51:31.219Z,11.50
2018-12-04T18:54:34.977Z,11.30
2018-12-04T18:57:38.249Z,9.60
2018-12-04T19:00:42.200Z,10.37
2018-12-04T19:03:45.525Z,11.73
2018-12-04T19:06:48.816Z,9.27
2018-12-04T19:09:52.161Z,10.30
2018-12-04T19:12:55.600Z,10.70
2018-12-04T19:15:59.296Z,10.33
2018-12-04T19:19:03.381Z,8.03
2018-12-04T19:22:06.802Z,10.70
2018-12-04T19:25:10.642Z,9.53
2018-12-04T19:28:14.452Z,13.53
2018-12-04T19:31:17.678Z,8.80
2018-12-04T19:34:20.925Z,8.80
2018-12-04T19:37:25.224Z,11.07
2018-12-04T19:40:28.739Z,12.47
2018-12-04T19:43:32.317Z,9.17
2018-12-04T19:46:35.655Z,8.50
2018-12-04T19:49:38.965Z,8.90
2018-12-04T19:52:42.285Z,10.57
2018-12-04T19:55:45.807Z,7.93
2018-12-04T19:58:49.377Z,12.27
2018-12-04T20:01:52.783Z,9.77
2018-12-04T20:04:58.757Z,10.17
2018-12-04T20:08:10.409Z,10.60
2018-12-04T20:11:20.446Z,10.57
2018-12-04T20:14:32.257Z,12.07
2018-12-04T20:17:42.329Z,13.40
2018-12-04T20:20:45.589Z,13.93
2018-12-04T20:23:48.947Z,11.93
2018-12-04T20:26:52.480Z,12.20
2018-12-04T20:29:55.773Z,12.03
2018-12-04T20:32:59.991Z,12.77
2018-12-04T20:36:04.188Z,11.40
2018-12-04T20:39:07.779Z,10.23
2018-12-04T20:42:11.603Z,13.83
2018-12-04T20:45:15.575Z,16.00
2018-12-04T20:48:20.084Z,13.50
2018-12-04T20:51:23.359Z,12.17
2018-12-04T20:54:26.739Z,12.27
2018-12-04T20:57:30.257Z,12.90
2018-12-04T21:00:33.619Z,13.30
2018-12-04T21:03:37.358Z,11.60
2018-12-04T21:06:40.621Z,11.40
2018-12-04T21:09:43.972Z,11.10
2018-12-04T21:12:47.530Z,13.03
2018-12-04T21:15:51.050Z,11.10
2018-12-04T21:18:54.261Z,13.13
2018-12-04T21:21:58.023Z,9.97
2018-12-04T21:25:01.592Z,10.30
2018-12-04T21:28:10.613Z,13.60
2018-12-04T21:31:19.670Z,13.50
2018-12-04T21:34:28.601Z,10.27
2018-12-04T21:37:37.420Z,13.80
2018-12-04T21:40:46.136Z,13.97
2018-12-04T21:43:54.789Z,12.57
2018-12-04T21:47:03.445Z,14.47
2018-12-04T21:50:07.127Z,11.90
2018-12-04T21:53:10.370Z,11.00
2018-12-04T21:56:13.693Z,11.70
2018-12-04T21:59:16.913Z,11.50
2018-12-04T22:02:20.133Z,15.27
2018-12-04T22:05:23.383Z,15.20
2018-12-04T22:08:26.688Z,13.47
2018-12-04T22:11:29.932Z,13.10
2018-12-04T22:14:33.153Z,11.17
2018-12-04T22:17:36.553Z,12.13
2018-12-04T22:20:39.978Z,12.30
2018-12-04T22:23:43.204Z,13.13
2018-12-04T22:26:46.563Z,10.93
2018-12-04T22:29:50.160Z,13.23
2018-12-04T22:32:53.411Z,13.90
2018-12-04T22:35:56.696Z,13.60
2018-12-04T22:38:59.953Z,12.13
2018-12-04T22:42:03.185Z,16.63
2018-12-04T22:48:36.122Z,11.37
2018-12-04T22:51:39.373Z,14.53
2018-12-04T22:54:42.669Z,14.83
2018-12-04T22:57:45.915Z,12.90
2018-12-04T23:00:50.005Z,12.43
2018-12-04T23:03:53.240Z,12.63
2018-12-04T23:06:56.563Z,13.83
2018-12-04T23:09:59.809Z,10.83
2018-12-04T23:13:03.086Z,13.43
2018-12-04T23:16:06.340Z,14.27
2018-12-04T23:19:09.650Z,17.73
2018-12-04T23:22:12.952Z,13.93
2018-12-04T23:25:16.256Z,14.10
2018-12-04T23:28:19.519Z,19.27
2018-12-04T23:31:22.767Z,15.53
2018-12-04T23:34:25.988Z,12.83
2018-12-04T23:37:29.237Z,14.67
2018-12-04T23:40:32.494Z,14.97
2018-12-04T23:43:35.775Z,13.37
2018-12-04T23:46:39.007Z,17.03
2018-12-04T23:49:42.318Z,15.93
2018-12-04T23:52:45.560Z,16.90
2018-12-04T23:55:48.933Z,14.40
2018-12-04T23:58:52.184Z,16.63
